Time;durP1;ratioP1;P1;durP2;ratioP2;P2;SDS_P1;SDS_P2;PMS_P1;PMS_P2;Temp;Humidity;BMP_temperature;BMP_pressure;BME280_temperature;BME280_humidity;BME280_pressure;Samples;Min_cycle;Max_cycle;Signal;HPM_P1;HPM_P2
2022/08/13 00:01:36;;;;;;;3.07;2.87;;;19.60;42.90;;;;;;5013892;28;20850;-67
2022/08/13 00:04:04;;;;;;;9.00;3.73;;;19.50;44.10;;;;;;5013962;28;20469;-66
2022/08/13 00:09:04;;;;;;;3.87;2.90;;;19.60;58.20;;;;;;5013679;28;20426;-65
2022/08/13 00:14:16;;;;;;;16.00;4.50;;;19.50;46.90;;;;;;5013639;28;20469;-66
2022/08/13 00:16:41;;;;;;;3.47;2.80;;;19.60;47.80;;;;;;5013944;28;20407;-65
2022/08/13 00:19:07;;;;;;;6.03;3.00;;;19.60;48.40;;;;;;4995982;28;20922;-65
2022/08/13 00:21:33;;;;;;;5.43;2.80;;;19.60;49.30;;;;;;5013692;28;20183;-66
2022/08/13 00:23:59;;;;;;;2.70;2.50;;;19.60;50.40;;;;;;5013658;28;20183;-66
2022/08/13 00:26:26;;;;;;;3.50;2.60;;;19.50;50.40;;;;;;5013670;28;20820;-66
2022/08/13 00:28:55;;;;;;;5.30;3.27;;;19.30;50.70;;;;;;5013189;28;20187;-66
2022/08/13 00:31:25;;;;;;;3.10;2.70;;;18.90;50.90;;;;;;5013739;28;20407;-65
2022/08/13 00:33:51;;;;;;;6.30;3.03;;;18.90;52.10;;;;;;5013645;28;21093;-66
2022/08/13 00:36:18;;;;;;;6.43;3.27;;;18.90;53.90;;;;;;5013204;28;20602;-66
2022/08/13 00:38:45;;;;;;;3.43;2.83;;;18.80;54.10;;;;;;5013052;28;20414;-67
2022/08/13 00:43:56;;;;;;;3.00;2.80;;;18.90;56.60;;;;;;5013309;28;20830;-67
2022/08/13 00:46:22;;;;;;;5.20;2.87;;;18.90;56.90;;;;;;5013126;28;20412;-67
2022/08/13 00:48:48;;;;;;;5.00;2.97;;;19.00;58.00;;;;;;5012734;28;20469;-65
2022/08/13 00:51:16;;;;;;;3.60;3.30;;;19.00;58.80;;;;;;5012838;28;20238;-66
2022/08/13 00:53:43;;;;;;;3.93;3.13;;;19.10;59.60;;;;;;5012489;28;20450;-66
2022/08/13 00:56:11;;;;;;;2.80;2.60;;;19.10;60.40;;;;;;4995122;28;20971;-66
2022/08/13 00:58:38;;;;;;;3.00;2.70;;;18.90;61.40;;;;;;5012449;28;20814;-65
2022/08/13 01:01:05;;;;;;;3.17;2.87;;;18.80;61.70;;;;;;5012721;28;20443;-66
2022/08/13 01:03:35;;;;;;;3.07;2.87;;;18.70;62.80;;;;;;5012620;28;20407;-65
2022/08/13 01:06:02;;;;;;;6.70;3.00;;;18.70;64.70;;;;;;5012380;28;20442;-66
2022/08/13 01:08:31;;;;;;;3.87;3.57;;;18.60;65.30;;;;;;5012164;28;20438;-66
2022/08/13 01:11:03;;;;;;;3.87;3.03;;;18.80;66.10;;;;;;5012646;28;20473;-67
2022/08/13 01:13:33;;;;;;;6.20;3.10;;;19.00;67.40;;;;;;5012396;28;20541;-66
2022/08/13 01:16:00;;;;;;;4.60;3.00;;;19.10;68.50;;;;;;5010973;28;20490;-66
2022/08/13 01:18:27;;;;;;;8.53;3.77;;;19.20;71.20;;;;;;5011877;28;20445;-65
2022/08/13 01:21:08;;;;;;;5.50;3.40;;;19.10;70.70;;;;;;5012571;28;20842;-65
2022/08/13 01:23:34;;;;;;;6.20;3.17;;;19.20;72.60;;;;;;5012204;28;20411;-67
2022/08/13 01:26:01;;;;;;;3.63;3.00;;;19.20;73.10;;;;;;5012184;28;20431;-66
2022/08/13 01:28:28;;;;;;;12.10;3.93;;;19.10;73.60;;;;;;5011868;28;20419;-65
2022/08/13 01:30:56;;;;;;;5.00;3.20;;;19.10;74.70;;;;;;5012071;28;20472;-66
2022/08/13 01:33:23;;;;;;;4.30;2.73;;;19.10;74.20;;;;;;5011843;28;20489;-66
2022/08/13 01:35:50;;;;;;;4.07;2.77;;;19.10;74.90;;;;;;5011972;28;20455;-67
2022/08/13 01:38:16;;;;;;;4.47;2.80;;;19.10;76.60;;;;;;5011759;28;20411;-67
2022/08/13 01:40:44;;;;;;;5.60;3.30;;;19.10;76.10;;;;;;5012198;28;20884;-67
2022/08/13 01:43:10;;;;;;;7.57;3.20;;;19.10;77.30;;;;;;5011927;28;20412;-65
2022/08/13 01:45:37;;;;;;;3.33;3.03;;;19.10;77.50;;;;;;5011451;28;20911;-66
2022/08/13 01:50:49;;;;;;;3.53;3.23;;;19.00;78.60;;;;;;5011797;28;20434;-67
2022/08/13 01:53:16;;;;;;;4.67;3.10;;;19.00;79.20;;;;;;5011675;28;20450;-68
2022/08/13 01:55:45;;;;;;;6.97;3.57;;;19.00;80.00;;;;;;5011526;28;20434;-65
2022/08/13 01:58:22;;;;;;;4.10;3.17;;;19.00;80.40;;;;;;5011209;28;20955;-66
2022/08/13 02:00:54;;;;;;;3.97;3.67;;;18.90;81.30;;;;;;5011679;28;20414;-67
2022/08/13 02:03:20;;;;;;;5.20;3.30;;;18.80;82.40;;;;;;5011728;28;20782;-67
2022/08/13 02:05:48;;;;;;;4.47;3.20;;;18.80;83.90;;;;;;5011458;28;20477;-66
2022/08/13 02:08:18;;;;;;;4.17;3.37;;;18.80;83.60;;;;;;5011100;28;20419;-66
2022/08/13 02:10:45;;;;;;;3.30;2.97;;;18.80;84.70;;;;;;5011293;28;20896;-64
2022/08/13 02:13:13;;;;;;;4.43;3.73;;;18.80;86.40;;;;;;5011289;28;20463;-66
2022/08/13 02:15:40;;;;;;;3.90;3.60;;;18.80;86.90;;;;;;5011284;28;20447;-66
2022/08/13 02:18:14;;;;;;;3.83;3.37;;;18.90;89.80;;;;;;5011352;28;20775;-66
2022/08/13 02:20:41;;;;;;;4.23;3.73;;;18.80;98.20;;;;;;5011405;28;20411;-66
2022/08/13 02:23:07;;;;;;;12.87;4.30;;;18.80;90.20;;;;;;5011320;28;20498;-66
2022/08/13 02:25:35;;;;;;;8.07;3.80;;;18.90;91.00;;;;;;5011373;28;21128;-65
2022/08/13 02:28:01;;;;;;;4.10;3.70;;;18.90;91.20;;;;;;5011108;28;20179;-66
2022/08/13 02:30:29;;;;;;;4.80;3.27;;;18.90;91.30;;;;;;5011138;28;20423;-65
2022/08/13 02:32:58;;;;;;;3.87;3.47;;;18.70;91.60;;;;;;5011159;28;20204;-65
2022/08/13 02:35:24;;;;;;;6.33;4.40;;;18.70;91.60;;;;;;5011093;28;20481;-65
2022/08/13 02:37:50;;;;;;;7.30;4.13;;;18.60;92.60;;;;;;5010859;28;20412;-66
2022/08/13 02:43:00;;;;;;;4.57;3.33;;;18.70;92.90;;;;;;5011581;28;20183;-66
2022/08/13 02:45:27;;;;;;;5.33;3.80;;;18.70;93.40;;;;;;5011117;28;20434;-66
2022/08/13 02:47:53;;;;;;;13.40;4.50;;;18.70;94.30;;;;;;5011070;28;20222;-66
2022/08/13 02:50:20;;;;;;;3.67;3.33;;;18.70;94.40;;;;;;5010967;28;20407;-66
2022/08/13 02:52:49;;;;;;;3.77;3.20;;;18.70;94.40;;;;;;5011009;28;20455;-66
2022/08/13 02:55:14;;;;;;;3.40;3.10;;;18.60;95.00;;;;;;5010997;28;20463;-66
2022/08/13 02:57:40;;;;;;;3.13;2.83;;;18.60;95.50;;;;;;5012760;28;20439;-66
2022/08/13 03:00:07;;;;;;;4.00;3.70;;;18.60;95.80;;;;;;5014835;28;20169;-66
2022/08/13 03:02:38;;;;;;;13.43;3.93;;;18.60;95.90;;;;;;5014889;28;20215;-66
2022/08/13 03:05:04;;;;;;;4.67;3.57;;;18.60;96.50;;;;;;5014943;28;20489;-67
2022/08/13 03:07:30;;;;;;;6.70;3.37;;;18.60;97.10;;;;;;5014777;28;20411;-65
2022/08/13 03:09:56;;;;;;;8.37;3.97;;;18.60;99.90;;;;;;5014709;28;20494;-67
2022/08/13 03:12:24;;;;;;;4.77;3.37;;;18.60;97.80;;;;;;5014988;28;20586;-66
2022/08/13 03:14:50;;;;;;;4.60;3.97;;;18.60;98.20;;;;;;5014967;28;20918;-66
2022/08/13 03:17:16;;;;;;;5.10;3.80;;;18.50;98.70;;;;;;5014396;28;20486;-66
2022/08/13 03:19:42;;;;;;;158.03;19.03;;;18.60;99.00;;;;;;5014327;28;20542;-65
2022/08/13 03:22:07;;;;;;;38.53;6.10;;;18.60;99.90;;;;;;5014595;28;20161;-67
2022/08/13 03:24:33;;;;;;;6.27;3.70;;;18.60;99.90;;;;;;5014529;28;20837;-66
2022/08/13 03:27:01;;;;;;;3.70;3.40;;;18.60;99.90;;;;;;5014366;28;20303;-66
2022/08/13 03:29:28;;;;;;;4.47;3.00;;;18.50;99.90;;;;;;5014103;28;20168;-66
2022/08/13 03:31:54;;;;;;;4.07;3.70;;;18.50;99.90;;;;;;5014626;28;20478;-64
2022/08/13 03:34:20;;;;;;;7.90;4.57;;;18.40;99.90;;;;;;4996561;28;20553;-67
2022/08/13 03:36:46;;;;;;;14.87;4.33;;;18.50;99.90;;;;;;5014287;28;20161;-66
2022/08/13 03:39:12;;;;;;;6.37;4.50;;;18.40;99.90;;;;;;5014133;28;20498;-66
2022/08/13 03:41:38;;;;;;;4.10;3.70;;;18.20;99.90;;;;;;5014430;28;20180;-66
2022/08/13 03:44:05;;;;;;;12.63;4.60;;;18.20;99.90;;;;;;5014347;28;20461;-65
2022/08/13 03:46:32;;;;;;;11.43;4.80;;;18.20;99.90;;;;;;5014820;28;20180;-64
2022/08/13 03:48:59;;;;;;;22.00;5.33;;;18.30;99.90;;;;;;5014656;28;21109;-65
2022/08/13 03:51:25;;;;;;;17.23;5.13;;;18.50;99.90;;;;;;5014837;28;20403;-66
2022/08/13 03:53:55;;;;;;;10.23;4.73;;;18.50;99.90;;;;;;5014107;28;20875;-66
2022/08/13 03:56:24;;;;;;;13.73;4.70;;;18.60;99.90;;;;;;5014375;28;20247;-66
2022/08/13 03:58:50;;;;;;;8.37;5.40;;;18.60;99.90;;;;;;5014496;28;20772;-66
2022/08/13 04:01:17;;;;;;;4.40;4.00;;;18.60;99.90;;;;;;5014480;28;20403;-65
2022/08/13 04:03:44;;;;;;;7.50;4.00;;;18.50;99.90;;;;;;5014141;28;20501;-66
2022/08/13 04:06:16;;;;;;;10.17;3.60;;;18.50;99.90;;;;;;5014089;28;20435;-66
2022/08/13 04:08:44;;;;;;;13.67;5.23;;;18.50;99.90;;;;;;5013438;28;20407;-66
2022/08/13 04:11:13;;;;;;;4.93;3.93;;;18.60;99.90;;;;;;5014370;28;20415;-66
2022/08/13 04:13:40;;;;;;;5.63;3.90;;;18.40;99.90;;;;;;5014150;28;20824;-65
2022/08/13 04:16:11;;;;;;;15.00;5.27;;;18.40;99.90;;;;;;5013897;28;20530;-66
2022/08/13 04:18:39;;;;;;;30.87;5.70;;;18.40;99.90;;;;;;5013518;28;20406;-66
2022/08/13 04:21:10;;;;;;;28.90;6.07;;;18.50;99.90;;;;;;5013457;28;20418;-66
2022/08/13 04:23:39;;;;;;;10.90;4.60;;;18.50;99.90;;;;;;5013449;28;20781;-66
2022/08/13 04:26:05;;;;;;;6.57;4.20;;;18.40;99.90;;;;;;5013422;28;20518;-66
2022/08/13 04:28:31;;;;;;;34.03;6.20;;;18.20;99.90;;;;;;5013111;28;20419;-66
2022/08/13 04:30:58;;;;;;;56.60;8.40;;;18.20;99.90;;;;;;5013517;28;20415;-65
2022/08/13 04:33:25;;;;;;;23.53;6.03;;;18.40;99.90;;;;;;5013216;28;20451;-65
2022/08/13 04:35:51;;;;;;;33.53;6.40;;;18.40;99.90;;;;;;5013501;28;20919;-65
2022/08/13 04:38:17;;;;;;;19.53;5.20;;;18.40;99.90;;;;;;5013088;28;20422;-66
2022/08/13 04:40:45;;;;;;;19.83;5.07;;;18.50;99.90;;;;;;5013099;28;20176;-65
2022/08/13 04:43:12;;;;;;;10.10;4.40;;;18.40;99.90;;;;;;5012990;28;20176;-66
2022/08/13 04:45:39;;;;;;;53.63;9.50;;;18.40;99.90;;;;;;5012974;28;20419;-66
2022/08/13 04:48:12;;;;;;;16.13;4.63;;;18.50;99.90;;;;;;5012816;28;20422;-65
2022/08/13 04:50:40;;;;;;;13.17;4.23;;;18.50;99.90;;;;;;5013069;28;20408;-64
2022/08/13 04:53:26;;;;;;;12.40;5.23;;;18.50;99.90;;;;;;4995182;28;20577;-66
2022/08/13 04:55:53;;;;;;;17.33;4.73;;;18.50;99.90;;;;;;5012969;28;20916;-66
2022/08/13 04:58:21;;;;;;;13.47;5.47;;;18.50;99.90;;;;;;5012549;28;20406;-66
2022/08/13 05:00:48;;;;;;;16.83;5.67;;;18.50;99.90;;;;;;5012931;28;20461;-66
2022/08/13 05:03:15;;;;;;;25.53;6.00;;;18.50;99.90;;;;;;5012800;28;20407;-65
2022/08/13 05:05:43;;;;;;;51.23;8.97;;;18.60;99.90;;;;;;5012738;28;20431;-66
2022/08/13 05:08:11;;;;;;;27.87;6.40;;;18.70;99.90;;;;;;5013054;28;20437;-66
2022/08/13 05:10:40;;;;;;;30.60;7.30;;;19.20;99.90;;;;;;5012753;28;20404;-66
2022/08/13 05:13:20;;;;;;;25.63;5.77;;;20.10;99.90;;;;;;5012815;28;20447;-66
2022/08/13 05:15:46;;;;;;;14.80;5.00;;;20.80;99.90;;;;;;5012371;28;20474;-65
2022/08/13 05:18:12;;;;;;;9.37;4.20;;;21.10;99.90;;;;;;5012227;28;20430;-65
2022/08/13 05:20:39;;;;;;;5.20;3.70;;;21.20;99.90;;;;;;5011800;28;20176;-66
2022/08/13 05:23:08;;;;;;;7.77;4.30;;;21.40;99.90;;;;;;5012315;28;20179;-66
2022/08/13 05:25:35;;;;;;;8.33;4.30;;;21.40;99.90;;;;;;5012312;28;20522;-66
2022/08/13 05:28:01;;;;;;;16.33;5.17;;;21.50;99.90;;;;;;5012091;28;20411;-66
2022/08/13 05:30:27;;;;;;;4.60;4.20;;;21.70;99.50;;;;;;5012101;28;20457;-66
2022/08/13 05:32:57;;;;;;;7.20;4.07;;;21.30;97.80;;;;;;5011956;28;20800;-67
2022/08/13 05:35:24;;;;;;;7.27;3.93;;;21.40;98.00;;;;;;5012064;28;20199;-66
2022/08/13 05:37:50;;;;;;;5.80;4.73;;;21.60;97.50;;;;;;5011811;28;20457;-66
2022/08/13 05:40:17;;;;;;;6.00;4.47;;;21.80;96.90;;;;;;5011903;28;20490;-67
2022/08/13 05:42:43;;;;;;;6.97;4.63;;;21.90;96.40;;;;;;5011859;28;20180;-66
2022/08/13 05:45:09;;;;;;;7.77;4.27;;;22.00;95.60;;;;;;5011914;28;20469;-66
2022/08/13 05:47:36;;;;;;;6.30;4.77;;;22.00;94.70;;;;;;5011921;28;20965;-66
2022/08/13 05:50:08;;;;;;;6.60;4.47;;;21.90;93.30;;;;;;5012381;28;20761;-65
2022/08/13 05:52:35;;;;;;;5.70;4.97;;;21.70;92.80;;;;;;5012184;28;20451;-65
2022/08/13 05:55:05;;;;;;;14.50;5.50;;;21.90;92.60;;;;;;5011908;28;20510;-65
2022/08/13 05:57:30;;;;;;;7.60;4.43;;;22.00;92.60;;;;;;5011452;28;20407;-66
2022/08/13 06:05:24;;;;;;;6.23;4.47;;;22.00;91.60;;;;;;5011953;28;20437;-66
2022/08/13 06:07:52;;;;;;;6.10;4.47;;;21.70;90.00;;;;;;5011408;28;20414;-66
2022/08/13 06:10:19;;;;;;;6.17;4.57;;;21.60;89.60;;;;;;5011334;28;20760;-66
2022/08/13 06:12:47;;;;;;;9.43;4.43;;;20.70;85.70;;;;;;5011717;28;20454;-65
2022/08/13 06:15:13;;;;;;;18.20;6.27;;;20.10;88.00;;;;;;5011386;28;20812;-65
2022/08/13 06:17:38;;;;;;;5.00;4.60;;;20.50;91.00;;;;;;5011203;28;20402;-66
2022/08/13 06:20:05;;;;;;;5.50;5.03;;;20.90;91.20;;;;;;5011293;28;20165;-66
2022/08/13 06:22:33;;;;;;;5.03;4.63;;;21.30;91.20;;;;;;5011146;28;20219;-66
2022/08/13 06:25:02;;;;;;;4.87;4.37;;;21.50;90.70;;;;;;5011169;28;20501;-65
2022/08/13 06:27:28;;;;;;;6.70;4.47;;;21.50;89.50;;;;;;5011274;28;20773;-65
2022/08/13 06:29:58;;;;;;;4.40;4.00;;;21.60;89.10;;;;;;5011242;28;20407;-66
2022/08/13 06:32:24;;;;;;;6.10;4.57;;;21.30;88.70;;;;;;5011085;28;20403;-66
2022/08/13 06:34:51;;;;;;;13.00;4.80;;;21.10;86.90;;;;;;5011225;28;20423;-65
2022/08/13 06:37:16;;;;;;;19.87;5.03;;;21.30;89.30;;;;;;5010834;28;20485;-66
2022/08/13 06:39:44;;;;;;;5.20;4.70;;;21.60;88.80;;;;;;5010963;28;20912;-67
2022/08/13 06:42:10;;;;;;;7.20;4.93;;;21.70;87.40;;;;;;5011143;28;20229;-67
2022/08/13 06:44:39;;;;;;;8.23;4.93;;;21.30;85.90;;;;;;5011027;28;20419;-66
2022/08/13 06:47:05;;;;;;;6.53;4.60;;;21.00;85.20;;;;;;5010892;28;20411;-65
2022/08/13 06:49:33;;;;;;;5.43;4.93;;;21.10;86.40;;;;;;5010917;28;20453;-66
2022/08/13 06:52:00;;;;;;;5.67;4.80;;;21.30;88.20;;;;;;5011000;28;20465;-65
2022/08/13 06:54:26;;;;;;;4.97;4.57;;;21.50;88.60;;;;;;5010834;28;20466;-65
2022/08/13 06:56:53;;;;;;;7.70;4.50;;;21.70;88.10;;;;;;5010966;28;20400;-66
2022/08/13 06:59:21;;;;;;;4.60;4.20;;;21.90;88.90;;;;;;5011427;28;20176;-65
2022/08/13 07:01:47;;;;;;;4.90;4.50;;;22.10;87.70;;;;;;5011743;28;20406;-66
2022/08/13 07:04:19;;;;;;;8.00;5.73;;;21.10;85.00;;;;;;5011167;28;20439;-66
2022/08/13 07:06:47;;;;;;;5.47;4.47;;;21.30;86.90;;;;;;5011262;28;20829;-66
2022/08/13 07:09:14;;;;;;;5.43;4.90;;;21.70;88.50;;;;;;5010809;28;20422;-66
2022/08/13 07:11:44;;;;;;;5.57;4.20;;;22.10;88.40;;;;;;5010745;28;20923;-66
2022/08/13 07:14:10;;;;;;;5.00;4.60;;;22.50;87.50;;;;;;4992903;28;20470;-66
2022/08/13 07:16:37;;;;;;;6.40;4.90;;;22.00;83.60;;;;;;5010923;28;20411;-66
2022/08/13 07:19:03;;;;;;;6.40;4.60;;;22.30;84.70;;;;;;5010399;28;20758;-66
2022/08/13 07:21:30;;;;;;;6.70;4.73;;;23.00;84.80;;;;;;5010945;28;20400;-67
2022/08/13 07:23:58;;;;;;;6.57;4.73;;;22.90;80.60;;;;;;5010626;28;20461;-66
2022/08/13 07:26:29;;;;;;;7.70;4.70;;;23.30;81.50;;;;;;5010817;28;20411;-66
2022/08/13 07:28:55;;;;;;;5.30;4.80;;;22.70;77.00;;;;;;5010467;28;20399;-65
2022/08/13 07:31:27;;;;;;;5.07;4.60;;;22.20;76.80;;;;;;5010655;28;20430;-66
2022/08/13 07:33:54;;;;;;;8.20;4.80;;;21.90;76.40;;;;;;5010765;28;20232;-64
2022/08/13 07:36:23;;;;;;;5.63;5.03;;;22.30;79.40;;;;;;5010759;28;20453;-68
2022/08/13 07:38:49;;;;;;;6.00;3.93;;;22.40;76.70;;;;;;5010393;28;20771;-65
2022/08/13 07:41:16;;;;;;;5.03;4.40;;;22.20;76.40;;;;;;5010638;28;20821;-65
2022/08/13 07:43:44;;;;;;;8.30;4.50;;;21.70;74.60;;;;;;5012216;28;20439;-66
2022/08/13 07:46:17;;;;;;;5.03;4.30;;;22.60;79.80;;;;;;5013974;28;20443;-67
2022/08/13 07:48:53;;;;;;;5.40;3.97;;;22.70;76.80;;;;;;5013892;28;20823;-68
2022/08/13 07:51:22;;;;;;;4.57;4.07;;;22.70;75.70;;;;;;5014165;28;20779;-67
2022/08/13 07:53:53;;;;;;;5.50;4.97;;;22.90;76.20;;;;;;5013774;28;20447;-66
2022/08/13 07:56:28;;;;;;;5.20;3.87;;;22.90;75.10;;;;;;5013943;28;20518;-65
2022/08/13 07:59:07;;;;;;;4.60;4.23;;;22.80;75.10;;;;;;5013663;28;20411;-66
2022/08/13 08:01:46;;;;;;;8.40;4.70;;;22.60;72.60;;;;;;5014086;28;20530;-66
2022/08/13 08:04:14;;;;;;;5.30;3.87;;;22.70;73.00;;;;;;5013921;28;20411;-67
2022/08/13 08:06:42;;;;;;;4.17;3.80;;;22.90;73.30;;;;;;5013734;28;20408;-67
2022/08/13 08:09:08;;;;;;;7.83;4.67;;;22.60;70.90;;;;;;5013401;28;20407;-67
2022/08/13 08:14:20;;;;;;;4.27;3.87;;;22.10;68.40;;;;;;5013236;28;20612;-66
2022/08/13 08:16:48;;;;;;;4.23;3.83;;;21.90;68.70;;;;;;5013493;28;20407;-67
2022/08/13 08:19:14;;;;;;;5.80;3.67;;;21.60;70.00;;;;;;5013412;28;20399;-67
2022/08/13 08:21:41;;;;;;;9.37;4.20;;;21.20;68.70;;;;;;5013601;28;20411;-66
2022/08/13 08:24:07;;;;;;;7.97;4.10;;;21.30;70.70;;;;;;5013717;28;20191;-66
2022/08/13 08:26:35;;;;;;;4.50;3.73;;;21.70;71.40;;;;;;5013670;28;20479;-66
2022/08/13 08:29:05;;;;;;;4.67;3.60;;;21.90;72.00;;;;;;5013252;28;20498;-67
2022/08/13 08:31:32;;;;;;;3.93;3.53;;;21.60;69.90;;;;;;5013486;28;20776;-66
2022/08/13 08:34:00;;;;;;;3.90;3.33;;;21.70;72.50;;;;;;5013266;28;20459;-67
2022/08/13 08:36:28;;;;;;;4.80;3.27;;;22.40;74.10;;;;;;5013465;28;20407;-66
2022/08/13 08:44:32;;;;;;;4.43;3.70;;;22.50;69.60;;;;;;5013837;28;20526;-66
2022/08/13 08:47:01;;;;;;;5.10;3.97;;;23.20;70.00;;;;;;5013222;28;20502;-66
2022/08/13 08:49:30;;;;;;;4.17;2.90;;;23.40;67.90;;;;;;5013079;28;20494;-65
2022/08/13 08:51:56;;;;;;;4.90;3.00;;;23.40;63.70;;;;;;5013083;28;20422;-66
2022/08/13 08:54:24;;;;;;;3.93;3.07;;;23.60;63.20;;;;;;5012022;28;20459;-68
2022/08/13 08:56:55;;;;;;;5.67;3.40;;;23.40;61.00;;;;;;5012590;28;20792;-66
2022/08/13 08:59:41;;;;;;;3.20;2.90;;;23.60;60.10;;;;;;5012672;28;20415;-66
2022/08/13 09:02:24;;;;;;;8.43;3.60;;;23.90;58.90;;;;;;5012749;28;20411;-65
2022/08/13 09:04:54;;;;;;;5.17;3.93;;;23.60;57.10;;;;;;4995361;28;20459;-66
2022/08/13 09:07:23;;;;;;;4.97;3.10;;;23.30;56.10;;;;;;5012564;28;20763;-65
2022/08/13 09:09:58;;;;;;;3.23;2.93;;;23.70;56.40;;;;;;5012948;28;20904;-67
2022/08/13 09:12:28;;;;;;;5.40;3.20;;;23.90;56.40;;;;;;5012500;28;20403;-66
2022/08/13 09:14:56;;;;;;;5.53;3.33;;;24.00;55.60;;;;;;5012727;28;20447;-64
2022/08/13 09:17:22;;;;;;;7.67;3.73;;;24.10;55.00;;;;;;5012232;28;20419;-65
2022/08/13 09:19:47;;;;;;;5.73;3.03;;;24.30;53.10;;;;;;5013894;28;20458;-62
2022/08/13 09:22:18;;;;;;;5.60;3.00;;;24.40;51.10;;;;;;5015417;28;20168;-63
2022/08/13 09:24:47;;;;;;;3.50;2.83;;;24.30;48.80;;;;;;5013736;28;20796;-61
2022/08/13 09:27:17;;;;;;;5.57;3.43;;;24.40;48.10;;;;;;5013093;28;20969;-63
2022/08/13 09:29:44;;;;;;;3.80;3.00;;;24.60;48.50;;;;;;5012117;28;20407;-64
2022/08/13 09:32:10;;;;;;;4.30;3.13;;;24.80;48.20;;;;;;5012237;28;20434;-62
2022/08/13 09:34:39;;;;;;;7.50;3.33;;;24.80;45.80;;;;;;5011940;28;20462;-63
2022/08/13 09:37:07;;;;;;;5.33;3.07;;;24.50;44.20;;;;;;5012129;28;20183;-63
2022/08/13 09:39:36;;;;;;;5.80;3.37;;;24.30;42.80;;;;;;5012130;28;20403;-63
2022/08/13 09:42:06;;;;;;;3.90;2.63;;;24.20;41.60;;;;;;5012698;28;20403;-64
2022/08/13 09:44:32;;;;;;;4.93;3.50;;;24.50;43.00;;;;;;5012119;28;20430;-62
2022/08/13 09:46:58;;;;;;;3.90;2.87;;;24.90;42.70;;;;;;5011687;28;20453;-63
2022/08/13 09:49:25;;;;;;;3.93;3.20;;;24.80;41.00;;;;;;5011597;28;20172;-63
2022/08/13 09:51:51;;;;;;;4.23;2.83;;;24.80;38.80;;;;;;5011918;28;20180;-61
2022/08/13 09:54:17;;;;;;;4.03;2.90;;;24.70;37.60;;;;;;5011708;28;20463;-64
2022/08/13 09:56:47;;;;;;;4.47;2.33;;;24.60;36.80;;;;;;5011883;28;20186;-63
2022/08/13 09:59:12;;;;;;;4.33;3.70;;;24.80;36.80;;;;;;5011561;28;20203;-64
2022/08/13 10:01:38;;;;;;;6.03;3.40;;;25.00;36.70;;;;;;5011540;28;20415;-64
2022/08/13 10:04:04;;;;;;;3.43;3.10;;;25.20;36.80;;;;;;5011620;28;20272;-62
2022/08/13 10:06:32;;;;;;;3.17;2.87;;;25.50;35.60;;;;;;5011634;28;20538;-64
2022/08/13 10:09:00;;;;;;;2.97;2.70;;;25.30;32.80;;;;;;5011096;28;20415;-64
2022/08/13 10:11:27;;;;;;;3.70;2.80;;;25.10;29.90;;;;;;5011572;28;20426;-66
2022/08/13 10:13:54;;;;;;;3.60;3.27;;;25.00;29.40;;;;;;5011392;28;20549;-65
2022/08/13 10:16:21;;;;;;;7.50;3.10;;;25.10;28.90;;;;;;5011074;28;20439;-62
2022/08/13 10:18:46;;;;;;;7.37;3.50;;;25.30;27.70;;;;;;5011226;28;20407;-62
2022/08/13 10:21:14;;;;;;;6.00;3.17;;;25.30;27.00;;;;;;5011376;28;20449;-63
2022/08/13 10:23:39;;;;;;;5.60;3.30;;;25.10;25.30;;;;;;5011319;28;20242;-67
2022/08/13 10:26:07;;;;;;;4.13;3.30;;;25.00;25.30;;;;;;5011133;28;21091;-67
2022/08/13 10:28:36;;;;;;;6.13;2.90;;;25.10;25.60;;;;;;5010944;28;20182;-68
2022/08/13 10:31:05;;;;;;;7.03;4.60;;;25.20;24.50;;;;;;5011244;28;20498;-65
2022/08/13 10:33:32;;;;;;;6.83;3.10;;;25.60;24.70;;;;;;5011293;28;20819;-66
2022/08/13 10:35:59;;;;;;;7.03;2.90;;;25.70;23.30;;;;;;5011204;28;20438;-66
2022/08/13 10:38:26;;;;;;;4.80;2.97;;;25.80;21.30;;;;;;5010568;28;20407;-67
2022/08/13 10:40:53;;;;;;;3.03;2.70;;;25.90;20.00;;;;;;5011055;28;20406;-66
2022/08/13 10:43:19;;;;;;;3.17;2.87;;;25.80;17.20;;;;;;5010953;28;20411;-66
2022/08/13 10:45:46;;;;;;;3.53;2.70;;;25.90;16.50;;;;;;5011091;28;20434;-66
2022/08/13 10:48:12;;;;;;;5.80;3.13;;;25.90;16.70;;;;;;5010631;28;20415;-67
2022/08/13 10:50:39;;;;;;;8.43;3.10;;;25.70;16.40;;;;;;5011148;28;20919;-67
2022/08/13 10:53:06;;;;;;;3.40;2.70;;;25.60;14.80;;;;;;5010937;28;20781;-66
2022/08/13 10:55:33;;;;;;;6.23;3.97;;;25.60;14.60;;;;;;5010696;28;20415;-66
2022/08/13 10:57:59;;;;;;;8.30;3.17;;;25.80;14.30;;;;;;5010807;28;20418;-66
2022/08/13 11:00:25;;;;;;;13.90;3.40;;;25.50;13.70;;;;;;5010578;28;20415;-67
2022/08/13 11:02:51;;;;;;;6.80;3.40;;;25.80;13.90;;;;;;5010947;28;20841;-66
2022/08/13 11:05:25;;;;;;;25.03;4.60;;;25.80;12.80;;;;;;5010794;28;20188;-65
2022/08/13 11:07:53;;;;;;;3.90;3.13;;;26.00;13.50;;;;;;5010818;28;20183;-67
2022/08/13 11:10:20;;;;;;;6.17;3.20;;;26.30;13.30;;;;;;5010484;28;20446;-68
2022/08/13 11:12:51;;;;;;;4.33;2.90;;;26.30;12.20;;;;;;5010675;28;20459;-66
2022/08/13 11:15:21;;;;;;;4.50;3.40;;;25.80;10.40;;;;;;5010419;28;20474;-67
2022/08/13 11:17:49;;;;;;;3.90;2.63;;;25.80;10.30;;;;;;5010989;28;20916;-67
2022/08/13 11:20:17;;;;;;;9.20;3.70;;;25.80;9.60;;;;;;5014465;28;20403;-66
2022/08/13 11:22:43;;;;;;;13.03;4.13;;;25.80;9.30;;;;;;5014195;28;20904;-68
2022/08/13 11:25:09;;;;;;;4.33;3.17;;;26.00;9.30;;;;;;5014255;28;20425;-67
2022/08/13 11:27:35;;;;;;;8.10;3.30;;;26.10;8.50;;;;;;5014272;28;20740;-67
2022/08/13 11:30:02;;;;;;;17.83;3.43;;;26.10;7.80;;;;;;5013912;28;20173;-68
2022/08/13 11:32:27;;;;;;;5.83;3.47;;;26.00;7.40;;;;;;5013952;28;20501;-66
2022/08/13 11:34:54;;;;;;;8.60;3.30;;;26.20;7.00;;;;;;5013915;28;20518;-67
2022/08/13 11:37:20;;;;;;;5.30;3.53;;;26.30;6.40;;;;;;5014092;28;20515;-65
2022/08/13 11:39:45;;;;;;;4.30;3.60;;;25.50;4.70;;;;;;5013973;28;20415;-67
2022/08/13 11:42:11;;;;;;;5.90;3.40;;;25.70;4.80;;;;;;5014146;28;20168;-67
2022/08/13 11:44:37;;;;;;;3.43;2.70;;;26.00;5.00;;;;;;5013816;28;20274;-65
2022/08/13 11:47:02;;;;;;;4.50;3.43;;;26.30;5.40;;;;;;5014169;28;20255;-63
2022/08/13 11:49:28;;;;;;;4.33;3.10;;;26.20;3.70;;;;;;5013993;28;20167;-64
2022/08/13 11:51:54;;;;;;;3.80;3.13;;;26.30;3.70;;;;;;5013770;28;20195;-66
2022/08/13 11:54:21;;;;;;;3.50;3.20;;;26.20;2.30;;;;;;5014043;28;20738;-67
2022/08/13 11:56:46;;;;;;;3.30;2.90;;;26.00;1.90;;;;;;5013993;28;20602;-68
2022/08/13 11:59:12;;;;;;;4.33;3.30;;;25.80;1.90;;;;;;5013492;28;20410;-65
2022/08/13 12:01:38;;;;;;;3.77;3.37;;;26.00;1.70;;;;;;5013842;28;20250;-65
2022/08/13 12:04:04;;;;;;;4.80;3.77;;;26.00;1.00;;;;;;5013721;28;20171;-66
2022/08/13 12:06:29;;;;;;;3.87;3.33;;;26.20;1.00;;;;;;5013409;28;20262;-66
2022/08/13 12:08:55;;;;;;;3.20;2.87;;;26.30;1.00;;;;;;5013340;28;20176;-67
2022/08/13 12:11:21;;;;;;;3.57;3.00;;;26.40;1.00;;;;;;5013682;28;20290;-66
2022/08/13 12:13:47;;;;;;;6.87;3.60;;;26.50;1.00;;;;;;5013276;28;20214;-67
2022/08/13 12:16:13;;;;;;;8.97;3.70;;;26.60;1.00;;;;;;5013173;28;20446;-66
2022/08/13 12:18:38;;;;;;;4.73;2.90;;;26.70;1.00;;;;;;5013455;28;20175;-67
2022/08/13 12:21:04;;;;;;;3.73;2.87;;;26.80;1.00;;;;;;5013445;28;20193;-67
2022/08/13 12:23:30;;;;;;;6.20;3.17;;;26.70;1.00;;;;;;5013240;28;20186;-67
2022/08/13 12:25:56;;;;;;;4.17;2.93;;;26.90;1.00;;;;;;5013554;28;20431;-67
2022/08/13 12:28:24;;;;;;;4.50;3.00;;;26.70;1.00;;;;;;5012729;28;20175;-67
2022/08/13 12:31:02;;;;;;;3.47;2.97;;;26.80;1.00;;;;;;5013175;28;20251;-66
2022/08/13 12:33:29;;;;;;;5.50;2.70;;;26.40;1.00;;;;;;5012832;28;20517;-67
2022/08/13 12:35:54;;;;;;;3.93;2.93;;;26.30;1.00;;;;;;5013127;28;20477;-67
2022/08/13 12:38:20;;;;;;;5.27;2.73;;;26.50;1.00;;;;;;5012811;28;20900;-67
2022/08/13 12:40:47;;;;;;;3.80;2.87;;;26.70;1.00;;;;;;5013052;28;20262;-68
2022/08/13 12:43:13;;;;;;;3.87;2.90;;;26.50;1.00;;;;;;5012959;28;20515;-66
2022/08/13 12:45:43;;;;;;;6.87;2.90;;;26.30;1.00;;;;;;5012870;28;20522;-67
2022/08/13 12:48:19;;;;;;;3.90;2.80;;;26.40;1.00;;;;;;5012555;28;20486;-67
2022/08/13 12:50:47;;;;;;;7.43;2.80;;;26.50;1.00;;;;;;5012803;28;20394;-66
2022/08/13 12:53:15;;;;;;;5.97;2.93;;;26.70;1.00;;;;;;5012780;28;20458;-67
2022/08/13 12:55:42;;;;;;;3.20;2.57;;;27.00;1.00;;;;;;5012790;28;20512;-66
2022/08/13 12:58:25;;;;;;;4.07;2.63;;;26.70;1.00;;;;;;5012480;28;21072;-66
2022/08/13 13:00:57;;;;;;;2.47;2.27;;;26.60;1.00;;;;;;5012691;28;20461;-67
2022/08/13 13:03:26;;;;;;;3.17;2.87;;;26.60;1.00;;;;;;5012561;28;20410;-64
2022/08/13 13:05:53;;;;;;;5.00;2.53;;;26.90;1.00;;;;;;5012596;28;20471;-68
2022/08/13 13:08:21;;;;;;;3.00;2.70;;;26.60;1.00;;;;;;5012184;28;20407;-64
2022/08/13 13:10:50;;;;;;;3.37;2.77;;;26.70;1.00;;;;;;5012446;28;20908;-67
2022/08/13 13:13:20;;;;;;;7.17;2.83;;;26.90;1.00;;;;;;5012283;28;20458;-68
2022/08/13 13:15:46;;;;;;;4.40;3.07;;;26.90;1.00;;;;;;5012336;28;21031;-67
2022/08/13 13:18:20;;;;;;;2.70;2.50;;;26.90;1.00;;;;;;5012107;28;20493;-66